Time;durP1;ratioP1;P1;durP2;ratioP2;P2;SDS_P1;SDS_P2;PMS_P1;PMS_P2;Temp;Humidity;BMP_temperature;BMP_pressure;BME280_temperature;BME280_humidity;BME280_pressure;Samples;Min_cycle;Max_cycle;Signal;HPM_P1;HPM_P2
2023/11/22 00:00:48;175436.00;0.58;303.63;0.00;0.00;0.62;;;;;13.00;1.00;;;;;;2275837;61;1027;-85
2023/11/22 00:03:15;288326.00;0.96;497.85;11193.00;0.04;20.02;;;;;13.30;1.00;;;;;;2275949;61;1115;-84
2023/11/22 00:05:41;1167044.00;3.89;2030.75;30912.00;0.10;54.16;;;;;13.00;1.00;;;;;;2275852;61;1732;-86
2023/11/22 00:08:08;1723637.00;5.75;3071.44;147693.00;0.49;255.83;;;;;12.70;1.00;;;;;;2275955;61;1026;-86
2023/11/22 00:10:35;1111061.00;3.70;1930.22;121089.00;0.40;209.96;;;;;12.80;1.00;;;;;;2275897;61;1040;-86
2023/11/22 00:13:02;391774.00;1.31;675.66;87429.00;0.29;151.87;;;;;13.20;1.00;;;;;;2275927;61;1090;-87
2023/11/22 00:15:30;422634.00;1.41;728.72;34813.00;0.12;60.91;;;;;13.20;1.00;;;;;;2275840;61;2006;-86
2023/11/22 00:17:57;91134.00;0.30;158.27;0.00;0.00;0.62;;;;;13.10;1.00;;;;;;2275926;61;1081;-84
2023/11/22 00:20:24;100224.00;0.33;173.96;0.00;0.00;0.62;;;;;13.40;1.00;;;;;;2275833;61;1802;-85
2023/11/22 00:22:51;0.00;0.00;0.62;0.00;0.00;0.62;;;;;13.60;1.00;;;;;;2275824;61;1059;-85
2023/11/22 00:25:19;122612.00;0.41;212.59;0.00;0.00;0.62;;;;;13.70;1.00;;;;;;2275814;61;1255;-85
2023/11/22 00:27:46;139867.00;0.47;242.34;10631.00;0.04;19.04;;;;;13.50;1.00;;;;;;2275795;61;1770;-85
2023/11/22 00:30:14;81369.00;0.27;141.40;0.00;0.00;0.62;;;;;13.20;1.00;;;;;;2275909;61;1095;-84
2023/11/22 00:32:42;151380.00;0.50;262.19;21088.00;0.07;37.15;;;;;13.20;1.00;;;;;;2275883;61;1058;-84
2023/11/22 00:35:10;35291.00;0.12;61.74;0.00;0.00;0.62;;;;;13.10;1.00;;;;;;2275802;61;2021;-84
2023/11/22 00:37:37;35813.00;0.12;62.64;0.00;0.00;0.62;;;;;13.50;1.00;;;;;;2275851;61;910;-84
2023/11/22 00:40:10;125352.00;0.42;217.31;0.00;0.00;0.62;;;;;13.40;1.00;;;;;;2275818;61;1131;-84
2023/11/22 00:42:37;442280.00;1.47;762.50;50202.00;0.17;87.54;;;;;12.90;1.00;;;;;;2275835;61;995;-86
2023/11/22 00:45:05;1702888.00;5.68;3031.04;118625.00;0.40;205.71;;;;;13.00;1.00;;;;;;2275793;61;1426;-85
2023/11/22 00:47:32;1695096.00;5.65;3015.90;166867.00;0.56;288.87;;;;;13.00;1.00;;;;;;2275759;61;1503;-86
2023/11/22 00:50:01;621388.00;2.07;1071.16;200262.00;0.67;346.37;;;;;13.20;1.00;;;;;;2275171;61;1819;-85
2023/11/22 00:52:28;491409.00;1.64;847.03;2140.00;0.01;4.33;;;;;13.10;1.00;;;;;;2275775;61;1098;-85
2023/11/22 00:54:55;48529.00;0.16;84.64;0.00;0.00;0.62;;;;;13.00;1.00;;;;;;2275648;61;2009;-85
2023/11/22 00:57:22;1290378.00;4.30;2254.51;59029.00;0.20;102.80;;;;;12.50;1.00;;;;;;2276162;60;1787;-86
2023/11/22 00:59:49;178399.00;0.59;308.73;33789.00;0.11;59.14;;;;;12.00;1.00;;;;;;2276328;60;1024;-84
2023/11/22 01:02:16;13658.00;0.05;24.29;0.00;0.00;0.62;;;;;11.70;1.00;;;;;;2276408;60;1149;-85
2023/11/22 01:04:43;84960.00;0.28;147.60;0.00;0.00;0.62;;;;;11.70;1.00;;;;;;2276390;60;1272;-85
2023/11/22 01:07:11;201260.00;0.67;348.09;0.00;0.00;0.62;;;;;11.50;1.20;;;;;;2276504;60;1016;-85
2023/11/22 01:09:38;246457.00;0.82;425.86;53638.00;0.18;93.48;;;;;11.80;1.00;;;;;;2276381;60;1038;-84
2023/11/22 01:12:07;34177.00;0.11;59.81;0.00;0.00;0.62;;;;;11.70;1.00;;;;;;2276436;60;2157;-85
2023/11/22 01:14:34;260251.00;0.87;449.58;49561.00;0.17;86.43;;;;;11.00;2.40;;;;;;2276535;60;1290;-85
2023/11/22 01:17:01;17061.00;0.06;30.18;0.00;0.00;0.62;;;;;9.70;8.40;;;;;;2276601;60;2001;-84
2023/11/22 01:19:28;0.00;0.00;0.62;0.00;0.00;0.62;;;;;9.30;11.40;;;;;;2276407;60;1150;-85
2023/11/22 01:21:55;71199.00;0.24;123.83;0.00;0.00;0.62;;;;;9.00;12.60;;;;;;2276553;60;1223;-85
2023/11/22 01:24:23;9910.00;0.03;17.79;0.00;0.00;0.62;;;;;8.90;15.30;;;;;;2276530;60;1403;-85
2023/11/22 01:26:50;84302.00;0.28;146.47;0.00;0.00;0.62;;;;;8.80;15.10;;;;;;2276420;60;1686;-85
2023/11/22 01:29:16;63274.00;0.21;110.14;0.00;0.00;0.62;;;;;8.50;16.00;;;;;;2276371;60;1016;-83
2023/11/22 01:31:43;290474.00;0.97;501.54;38243.00;0.13;66.85;;;;;8.60;16.40;;;;;;2276563;60;1039;-84
2023/11/22 01:34:10;47127.00;0.16;82.22;0.00;0.00;0.62;;;;;8.40;16.20;;;;;;2276427;60;1383;-85
2023/11/22 01:36:39;19666.00;0.07;34.69;0.00;0.00;0.62;;;;;8.30;16.80;;;;;;2276597;60;1919;-88
2023/11/22 01:39:06;10405.00;0.03;18.65;0.00;0.00;0.62;;;;;8.00;16.20;;;;;;2276509;60;1107;-86
2023/11/22 01:41:34;578.00;0.00;1.62;0.00;0.00;0.62;;;;;7.70;17.90;;;;;;2276457;60;2279;-85
2023/11/22 01:44:02;14911.00;0.05;26.46;0.00;0.00;0.62;;;;;7.70;17.20;;;;;;2276259;60;1324;-86
2023/11/22 01:46:28;25236.00;0.08;44.34;0.00;0.00;0.62;;;;;7.70;17.70;;;;;;2276295;61;1645;-85
2023/11/22 01:48:56;17703.00;0.06;31.29;0.00;0.00;0.62;;;;;7.30;16.20;;;;;;2276489;61;1036;-87
2023/11/22 01:51:24;52752.00;0.18;91.95;0.00;0.00;0.62;;;;;7.00;19.20;;;;;;2276352;61;1135;-86
2023/11/22 01:53:54;622199.00;2.07;1072.57;32540.00;0.11;56.98;;;;;7.20;19.80;;;;;;2276389;61;1134;-86
2023/11/22 01:56:21;644435.00;2.15;1111.01;70852.00;0.24;123.23;;;;;7.20;19.70;;;;;;2276344;61;1994;-86
2023/11/22 01:58:51;397373.00;1.32;685.29;21695.00;0.07;38.21;;;;;7.00;19.60;;;;;;2276408;61;1058;-86
2023/11/22 02:01:17;638201.00;2.13;1100.23;188605.00;0.63;326.31;;;;;7.00;19.50;;;;;;2276409;61;1151;-86
2023/11/22 02:03:47;778968.00;2.60;1344.47;80958.00;0.27;140.69;;;;;7.20;19.70;;;;;;2276313;61;1070;-86
2023/11/22 02:06:17;530879.00;1.77;915.01;29594.00;0.10;51.88;;;;;7.20;19.70;;;;;;2275956;61;1294;-85
2023/11/22 02:08:43;590452.00;1.97;1017.74;33886.00;0.11;59.31;;;;;7.10;18.00;;;;;;2276223;61;1688;-87
2023/11/22 02:11:11;117442344.00;391.47;65615000.00;20581.00;0.07;36.28;;;;;7.10;17.60;;;;;;2276402;61;1146;-85
2023/11/22 02:13:37;708393.00;2.36;1221.80;94104.00;0.31;163.39;;;;;7.20;17.80;;;;;;2276309;61;1171;-85
2023/11/22 02:16:06;592503.00;1.98;1021.28;0.00;0.00;0.62;;;;;7.10;16.90;;;;;;2276396;61;2002;-85
2023/11/22 02:18:33;812044.00;2.71;1402.14;63095.00;0.21;109.83;;;;;6.80;17.60;;;;;;2276433;61;1739;-85
2023/11/22 02:21:01;874450.00;2.91;1511.29;43232.00;0.14;75.48;;;;;6.60;19.30;;;;;;2276392;61;1046;-85
2023/11/22 02:23:30;800560.00;2.67;1382.10;38954.00;0.13;68.08;;;;;6.40;19.70;;;;;;2276175;61;993;-85
2023/11/22 02:25:58;809068.00;2.70;1396.94;53279.00;0.18;92.86;;;;;6.60;19.30;;;;;;2276262;61;1332;-84
2023/11/22 02:28:24;627779.00;2.09;1082.21;37225.00;0.12;65.09;;;;;6.60;17.80;;;;;;2276139;61;1573;-85
2023/11/22 02:30:51;809891.00;2.70;1398.38;53859.00;0.18;93.86;;;;;6.60;16.70;;;;;;2276316;61;1109;-85
2023/11/22 02:33:18;1120844.00;3.74;1947.74;179306.00;0.60;310.29;;;;;6.50;17.70;;;;;;2276300;61;1090;-85
2023/11/22 02:35:45;905107.00;3.02;1565.09;111581.00;0.37;193.56;;;;;6.60;17.30;;;;;;2276128;61;2002;-86
2023/11/22 02:38:12;909863.00;3.03;1573.45;41477.00;0.14;72.44;;;;;6.60;16.50;;;;;;2276257;61;1031;-85
2023/11/22 02:40:41;851312.00;2.84;1470.76;94006.00;0.31;163.22;;;;;6.60;17.00;;;;;;2276274;61;1159;-85
2023/11/22 02:43:08;1127571.00;3.76;1959.80;52473.00;0.17;91.46;;;;;6.70;17.00;;;;;;2276253;61;1079;-84
2023/11/22 02:45:35;1177476.00;3.92;2049.55;191857.00;0.64;331.91;;;;;6.60;16.00;;;;;;2276186;61;1337;-87
2023/11/22 02:48:03;1071660.00;3.57;1859.82;119388.00;0.40;207.03;;;;;6.60;17.00;;;;;;2276158;61;992;-87
2023/11/22 02:50:31;1157786.00;3.86;2014.08;181668.00;0.61;314.36;;;;;6.70;16.00;;;;;;2276228;61;995;-86
2023/11/22 02:52:58;1167023.00;3.89;2030.71;176615.00;0.59;305.66;;;;;6.60;16.40;;;;;;2276252;61;1077;-85
2023/11/22 02:55:25;928063.00;3.09;1605.46;125015.00;0.42;216.73;;;;;6.60;18.20;;;;;;2276147;61;2002;-88
2023/11/22 02:57:53;763738.00;2.55;1317.95;125961.00;0.42;218.36;;;;;6.50;18.20;;;;;;2276038;61;996;-85
2023/11/22 03:00:20;1272347.00;4.24;2221.59;115624.00;0.39;200.53;;;;;6.70;18.00;;;;;;2276199;61;1126;-84
2023/11/22 03:02:47;1277481.00;4.26;2230.95;208774.00;0.70;361.03;;;;;6.60;16.60;;;;;;2276132;61;1023;-84
2023/11/22 03:05:14;1293814.00;4.31;2260.79;158099.00;0.53;273.76;;;;;6.60;16.60;;;;;;2275706;61;1321;-86
2023/11/22 03:07:42;994734.00;3.32;1723.15;126776.00;0.42;219.77;;;;;6.30;16.70;;;;;;2276091;61;1677;-85
2023/11/22 03:10:10;608333.00;2.03;1048.61;105946.00;0.35;183.83;;;;;6.40;17.30;;;;;;2276236;61;1078;-86
2023/11/22 03:12:37;436180.00;1.45;752.01;96513.00;0.32;167.55;;;;;6.40;16.70;;;;;;2276080;61;1945;-85
2023/11/22 03:15:07;466878.00;1.56;804.82;97756.00;0.33;169.70;;;;;6.40;15.60;;;;;;2276197;61;1336;-87
2023/11/22 03:17:33;428348.00;1.43;738.54;86865.00;0.29;150.89;;;;;6.30;15.20;;;;;;2276050;61;2010;-86
2023/11/22 03:20:01;282717.00;0.94;488.21;106649.00;0.36;185.05;;;;;6.20;15.70;;;;;;2276175;61;1082;-86
2023/11/22 03:22:30;426730.00;1.42;735.76;132899.00;0.44;230.33;;;;;6.10;14.90;;;;;;2276250;61;1126;-86
2023/11/22 03:24:58;168795.00;0.56;292.19;92303.00;0.31;160.28;;;;;6.00;15.10;;;;;;2276070;61;1273;-85
2023/11/22 03:27:26;252466.00;0.84;436.19;92668.00;0.31;160.91;;;;;5.70;15.60;;;;;;2276121;61;1031;-85
2023/11/22 03:29:52;206718.00;0.69;357.49;92377.00;0.31;160.41;;;;;6.00;15.10;;;;;;2276011;61;1279;-84
2023/11/22 03:32:21;213119.00;0.71;368.50;95302.00;0.32;165.46;;;;;6.30;13.20;;;;;;2276101;61;1048;-84
2023/11/22 03:34:48;273623.00;0.91;472.57;105070.00;0.35;182.32;;;;;6.40;11.00;;;;;;2275998;61;1415;-84
2023/11/22 03:37:15;315409.00;1.05;544.41;112099.00;0.37;194.45;;;;;6.50;11.40;;;;;;2275965;61;1918;-85
2023/11/22 03:39:48;182676.00;0.61;316.10;94415.00;0.31;163.93;;;;;6.10;11.40;;;;;;2275935;61;1032;-88
2023/11/22 03:42:14;276770.00;0.92;477.98;138637.00;0.46;240.22;;;;;6.00;11.60;;;;;;2276083;61;1063;-85
2023/11/22 03:44:41;305557.00;1.02;527.47;96053.00;0.32;166.76;;;;;6.20;10.80;;;;;;2275990;61;1396;-87
2023/11/22 03:47:08;316199.00;1.05;545.76;137585.00;0.46;238.41;;;;;5.90;9.90;;;;;;2276034;61;1079;-85
2023/11/22 03:49:36;331164.00;1.10;571.49;81308.00;0.27;141.30;;;;;6.20;11.20;;;;;;2276075;61;1075;-85
2023/11/22 03:52:03;452742.00;1.51;780.50;94959.00;0.32;164.87;;;;;5.60;10.40;;;;;;2276106;61;1046;-85
2023/11/22 03:54:30;272884.00;0.91;471.30;92374.00;0.31;160.41;;;;;5.60;13.10;;;;;;2275949;61;1246;-85
2023/11/22 03:56:57;252319.00;0.84;435.94;89286.00;0.30;155.07;;;;;5.60;12.40;;;;;;2275930;61;2008;-84
2023/11/22 03:59:24;60854.00;0.20;105.95;0.00;0.00;0.62;;;;;5.70;12.00;;;;;;2276087;61;1107;-85
2023/11/22 04:01:51;229233.00;0.76;396.23;35681.00;0.12;62.42;;;;;5.40;11.00;;;;;;2276206;61;1075;-86
2023/11/22 04:04:19;196819.00;0.66;340.45;28244.00;0.09;49.54;;;;;5.10;12.20;;;;;;2276331;61;1397;-86
2023/11/22 04:06:47;22067.00;0.07;38.85;0.00;0.00;0.62;;;;;5.10;12.00;;;;;;2276296;61;1149;-85
2023/11/22 04:09:14;41268.00;0.14;72.08;0.00;0.00;0.62;;;;;5.00;12.90;;;;;;2276293;61;1130;-87
2023/11/22 04:11:41;33806.00;0.11;59.17;0.00;0.00;0.62;;;;;4.90;11.50;;;;;;2276307;61;1097;-86
2023/11/22 04:14:08;40460.00;0.13;70.68;0.00;0.00;0.62;;;;;4.90;11.80;;;;;;2276387;61;1277;-86
2023/11/22 04:16:36;0.00;0.00;0.62;0.00;0.00;0.62;;;;;4.70;12.60;;;;;;2276241;61;1997;-86
2023/11/22 04:19:02;119647.00;0.40;207.47;0.00;0.00;0.62;;;;;4.80;13.00;;;;;;2276238;61;1746;-86
2023/11/22 04:21:29;221326.00;0.74;382.63;51217.00;0.17;89.29;;;;;5.00;12.10;;;;;;2276295;61;1098;-87
2023/11/22 04:23:57;63712.00;0.21;110.89;0.00;0.00;0.62;;;;;4.90;11.00;;;;;;2276365;61;1386;-86
2023/11/22 04:26:25;66605.00;0.22;115.89;0.00;0.00;0.62;;;;;4.80;13.40;;;;;;2276252;61;1058;-86
2023/11/22 04:28:52;204816.00;0.68;354.21;64999.00;0.22;113.12;;;;;4.80;13.70;;;;;;2276177;61;1076;-87
2023/11/22 04:31:19;0.00;0.00;0.62;0.00;0.00;0.62;;;;;4.70;14.00;;;;;;2276928;61;992;-85
2023/11/22 04:33:45;75880.00;0.25;131.92;0.00;0.00;0.62;;;;;4.80;13.80;;;;;;2276910;61;1114;-84
2023/11/22 04:36:12;83919.00;0.28;145.81;0.00;0.00;0.62;;;;;4.70;13.90;;;;;;2276789;61;1918;-87
2023/11/22 04:38:39;48355.00;0.16;84.34;0.00;0.00;0.62;;;;;4.70;13.70;;;;;;2276809;61;1093;-86
2023/11/22 04:41:07;42497.00;0.14;74.21;0.00;0.00;0.62;;;;;4.80;13.30;;;;;;2276836;61;1113;-88
2023/11/22 04:43:34;69180.00;0.23;120.34;0.00;0.00;0.62;;;;;4.80;12.00;;;;;;2276941;61;1089;-87
2023/11/22 04:46:01;67742.00;0.23;117.86;0.00;0.00;0.62;;;;;5.00;12.10;;;;;;2276838;61;1401;-85
2023/11/22 04:48:28;177353.00;0.59;306.93;28708.00;0.10;50.35;;;;;5.00;10.40;;;;;;2276841;61;1732;-86
2023/11/22 04:50:55;80151.00;0.27;139.30;0.00;0.00;0.62;;;;;4.90;9.20;;;;;;2276719;61;2347;-85
2023/11/22 04:53:22;125479.00;0.42;217.53;0.00;0.00;0.62;;;;;4.90;10.00;;;;;;2276937;61;1038;-86
2023/11/22 04:55:49;115950.00;0.39;201.10;0.00;0.00;0.62;;;;;5.20;9.40;;;;;;2276792;61;1380;-85
2023/11/22 04:58:17;152815.00;0.51;264.66;0.00;0.00;0.62;;;;;5.10;7.10;;;;;;2276864;61;2029;-85
2023/11/22 05:00:45;46840.00;0.16;81.72;0.00;0.00;0.62;;;;;5.10;7.10;;;;;;2276815;61;1103;-86
2023/11/22 05:03:12;7753.00;0.03;14.06;0.00;0.00;0.62;;;;;5.10;7.50;;;;;;2276820;61;1466;-86
2023/11/22 05:05:39;87839.00;0.29;152.58;0.00;0.00;0.62;;;;;5.00;5.80;;;;;;2276769;61;1372;-86
2023/11/22 05:08:06;338118.00;1.13;583.44;12982.00;0.04;23.12;;;;;4.90;7.30;;;;;;2276813;61;1540;-85
2023/11/22 05:10:33;1302917.00;4.34;2277.44;112830.00;0.38;195.71;;;;;4.90;7.40;;;;;;2276798;61;2009;-87
2023/11/22 05:13:00;1100987.00;3.67;1912.19;62617.00;0.21;109.00;;;;;4.90;7.40;;;;;;2276794;61;1060;-88
2023/11/22 05:15:30;1041070.00;3.47;1805.35;110968.00;0.37;192.50;;;;;5.20;6.30;;;;;;2276747;61;1694;-87
2023/11/22 05:17:57;871188.00;2.90;1505.57;38211.00;0.13;66.79;;;;;5.20;4.80;;;;;;2276753;61;2005;-87
2023/11/22 05:20:24;817567.00;2.73;1411.78;67580.00;0.23;117.58;;;;;4.90;3.90;;;;;;2276732;61;1071;-87
2023/11/22 05:22:51;940655.00;3.14;1627.64;84853.00;0.28;147.42;;;;;4.90;5.90;;;;;;2276718;61;1043;-88
2023/11/22 05:25:18;897045.00;2.99;1550.93;62646.00;0.21;109.05;;;;;5.30;3.70;;;;;;2276596;61;2203;-87
2023/11/22 05:27:45;1233819.00;4.11;2151.49;70957.00;0.24;123.41;;;;;5.40;3.70;;;;;;2276642;61;1146;-87
2023/11/22 05:30:12;1016019.00;3.39;1760.86;73158.00;0.24;127.22;;;;;5.10;3.30;;;;;;2276753;61;1057;-87
2023/11/22 05:32:41;1020222.00;3.40;1768.32;102139.00;0.34;177.26;;;;;4.80;4.30;;;;;;2276692;61;1017;-87
2023/11/22 05:35:09;867040.00;2.89;1498.30;48088.00;0.16;83.88;;;;;5.00;3.90;;;;;;2276592;61;1368;-86
2023/11/22 05:37:37;770632.00;2.57;1329.95;42742.00;0.14;74.63;;;;;5.00;2.90;;;;;;2276666;61;1910;-87
2023/11/22 05:40:05;1270055.00;4.23;2217.41;62447.00;0.21;108.71;;;;;5.00;3.60;;;;;;2276518;61;2018;-87
2023/11/22 05:42:32;841398.00;2.80;1453.42;109093.00;0.36;189.26;;;;;5.00;2.70;;;;;;2276631;61;1086;-88
2023/11/22 05:44:59;1948115.00;6.49;3518.33;272811.00;0.91;471.18;;;;;4.90;1.40;;;;;;2276694;61;1346;-88
2023/11/22 05:47:26;1605335.00;5.35;2842.94;121008.00;0.40;209.82;;;;;4.80;3.00;;;;;;2276339;61;1534;-87
2023/11/22 05:49:54;1245593.00;4.15;2172.87;157349.00;0.52;272.47;;;;;5.10;2.30;;;;;;2276630;61;1139;-87
2023/11/22 05:52:23;1354761.00;4.52;2372.68;181938.00;0.61;314.83;;;;;5.30;1.00;;;;;;2276716;61;966;-85
2023/11/22 05:54:50;1245582.00;4.15;2172.85;116153.00;0.39;201.45;;;;;5.10;1.00;;;;;;2276466;61;1291;-86
2023/11/22 05:57:19;118681232.00;395.60;67715376.00;248332.00;0.83;429.08;;;;;5.00;1.20;;;;;;2276260;61;1920;-87
2023/11/22 05:59:47;2635708.00;8.79;5021.83;394605.00;1.32;680.53;;;;;5.20;1.60;;;;;;2276517;60;1468;-88
2023/11/22 06:04:44;888593.00;2.96;1536.09;120582.00;0.40;209.09;;;;;4.90;1.00;;;;;;2289886;56;3607;-85
2023/11/22 06:09:40;118579712.00;395.27;67541608.00;108984.00;0.36;189.08;;;;;4.70;1.70;;;;;;2279783;39;3493;-86
2023/11/22 06:14:37;553885.00;1.85;954.66;84805.00;0.28;147.34;;;;;5.00;1.00;;;;;;2277891;61;1375;-86
2023/11/22 06:17:04;285097.00;0.95;492.30;100960.00;0.34;175.23;;;;;5.20;1.00;;;;;;2319600;40;3609;-88
2023/11/22 06:19:31;152739.00;0.51;264.53;0.00;0.00;0.62;;;;;4.90;1.00;;;;;;2280280;61;1668;-87
2023/11/22 06:21:57;43839.00;0.15;76.53;0.00;0.00;0.62;;;;;4.80;1.00;;;;;;2280450;61;1149;-86
2023/11/22 06:24:25;146128.00;0.49;253.13;0.00;0.00;0.62;;;;;4.90;1.00;;;;;;2280630;60;1370;-87
2023/11/22 06:26:54;94248.00;0.31;163.64;0.00;0.00;0.62;;;;;5.10;1.00;;;;;;2280557;60;1117;-88
2023/11/22 06:29:21;59268.00;0.20;103.21;0.00;0.00;0.62;;;;;5.10;1.00;;;;;;2281049;55;3745;-85
2023/11/22 06:31:48;158988.00;0.53;275.30;0.00;0.00;0.62;;;;;4.70;1.00;;;;;;2280608;61;1006;-86
2023/11/22 06:34:14;72119.00;0.24;125.42;0.00;0.00;0.62;;;;;5.00;1.00;;;;;;2280357;60;1356;-85
2023/11/22 06:36:41;246661.00;0.82;426.21;0.00;0.00;0.62;;;;;5.20;1.00;;;;;;2280388;60;1922;-88
2023/11/22 06:39:09;292939.00;0.98;505.78;0.00;0.00;0.62;;;;;5.10;1.00;;;;;;2280500;60;1107;-87
2023/11/22 06:41:36;135604.00;0.45;234.99;0.00;0.00;0.62;;;;;4.90;1.00;;;;;;2280404;60;922;-87
2023/11/22 06:44:04;1044472.00;3.48;1811.40;72532.00;0.24;126.14;;;;;5.10;1.00;;;;;;2322076;55;3791;-87
2023/11/22 06:46:31;1991015.00;6.64;3605.89;104893.00;0.35;182.02;;;;;5.20;1.00;;;;;;2281041;61;1808;-87
2023/11/22 06:48:58;2078972.00;6.93;3787.76;110567.00;0.37;191.81;;;;;5.20;1.00;;;;;;2280860;61;1556;-86
2023/11/22 06:51:26;2297792.00;7.66;4254.80;287469.00;0.96;496.38;;;;;5.30;1.00;;;;;;2280924;61;755;-87
2023/11/22 06:58:51;159451.00;0.53;276.09;0.00;0.00;0.62;;;;;5.40;1.00;;;;;;2278026;61;1973;-90
2023/11/22 07:01:19;54844.00;0.18;95.56;0.00;0.00;0.62;;;;;5.30;1.00;;;;;;2302862;56;3768;-85
2023/11/22 07:03:46;78651.00;0.26;136.71;0.00;0.00;0.62;;;;;5.20;1.00;;;;;;2280573;61;998;-84
2023/11/22 07:06:13;254523.00;0.85;439.73;0.00;0.00;0.62;;;;;5.30;1.00;;;;;;2280320;60;1387;-86
2023/11/22 07:08:39;0.00;0.00;0.62;0.00;0.00;0.62;;;;;5.60;1.00;;;;;;2280448;60;1114;-85
2023/11/22 07:11:09;23460.00;0.08;41.26;0.00;0.00;0.62;;;;;6.00;1.00;;;;;;2280484;60;1135;-88
2023/11/22 07:13:38;262507.00;0.88;453.46;23804.00;0.08;41.86;;;;;6.30;1.00;;;;;;2280418;60;2314;-86
2023/11/22 07:16:06;744304.00;2.48;1284.16;53095.00;0.18;92.54;;;;;6.00;1.00;;;;;;2280232;60;1674;-86
2023/11/22 07:18:35;1612632.00;5.38;2856.90;104431.00;0.35;181.22;;;;;5.80;1.00;;;;;;2280403;60;2011;-87
2023/11/22 07:21:02;490557.00;1.64;845.57;96645.00;0.32;167.78;;;;;5.50;1.00;;;;;;2280312;60;1071;-88
2023/11/22 07:23:29;342677.00;1.14;591.27;92823.00;0.31;161.18;;;;;5.30;1.00;;;;;;2280247;60;962;-86
2023/11/22 07:25:56;221452.00;0.74;382.84;31402.00;0.10;55.01;;;;;5.50;1.00;;;;;;2280310;60;1434;-86
2023/11/22 07:28:24;114893.00;0.38;199.27;0.00;0.00;0.62;;;;;5.90;1.00;;;;;;2280370;60;1538;-87
2023/11/22 07:30:51;94219.00;0.31;163.59;0.00;0.00;0.62;;;;;6.00;1.00;;;;;;2280361;60;1123;-87
2023/11/22 07:33:20;89457.00;0.30;155.37;0.00;0.00;0.62;;;;;6.10;1.00;;;;;;2280380;60;1038;-87
2023/11/22 07:35:48;104987.00;0.35;182.18;0.00;0.00;0.62;;;;;6.10;1.00;;;;;;2280183;60;1422;-89
2023/11/22 07:38:17;268601.00;0.90;463.94;17179.00;0.06;30.38;;;;;6.30;1.00;;;;;;2280297;60;2006;-85
2023/11/22 07:40:44;1060428.00;3.53;1839.80;131087.00;0.44;227.20;;;;;6.20;1.00;;;;;;2280366;60;1136;-86
2023/11/22 07:43:11;1750232.00;5.83;3123.45;220079.00;0.73;380.48;;;;;6.10;1.00;;;;;;2280388;60;1004;-86
2023/11/22 07:45:38;203666.00;0.68;352.23;96433.00;0.32;167.41;;;;;5.90;1.00;;;;;;2280296;60;1322;-87
2023/11/22 07:48:06;69874.00;0.23;121.54;0.00;0.00;0.62;;;;;6.00;1.00;;;;;;2280392;60;1134;-87
2023/11/22 07:50:33;89132.00;0.30;154.81;0.00;0.00;0.62;;;;;5.80;1.00;;;;;;2280378;60;1219;-86
2023/11/22 07:53:02;85760.00;0.29;148.99;0.00;0.00;0.62;;;;;5.80;1.00;;;;;;2280318;60;1095;-88
2023/11/22 07:55:30;34568.00;0.12;60.49;0.00;0.00;0.62;;;;;5.80;1.00;;;;;;2280170;60;1285;-86
2023/11/22 07:57:56;118516.00;0.40;205.52;19453.00;0.06;34.32;;;;;5.40;1.00;;;;;;2280231;60;2008;-87
2023/11/22 08:00:23;631818.00;2.11;1089.19;14216.00;0.05;25.25;;;;;5.50;1.00;;;;;;2280179;60;963;-88
2023/11/22 08:02:50;1304423.00;4.35;2280.20;61795.00;0.21;107.58;;;;;5.40;1.00;;;;;;2280258;60;956;-86
2023/11/22 08:05:17;1310766.00;4.37;2291.82;63471.00;0.21;110.48;;;;;5.30;1.00;;;;;;2280076;60;1392;-87
2023/11/22 08:07:45;323443.00;1.08;558.22;87790.00;0.29;152.49;;;;;5.30;1.00;;;;;;2280206;60;1180;-87
2023/11/22 08:10:18;1430093.00;4.77;2512.25;75714.00;0.25;131.63;;;;;5.30;1.00;;;;;;2280081;60;1668;-86
2023/11/22 08:12:46;171845.00;0.57;297.44;0.00;0.00;0.62;;;;;5.10;1.00;;;;;;2280208;60;989;-87
2023/11/22 08:15:15;27060.00;0.09;47.49;0.00;0.00;0.62;;;;;5.30;1.00;;;;;;2280161;60;1256;-87
2023/11/22 08:17:42;45726.00;0.15;79.79;0.00;0.00;0.62;;;;;5.20;1.00;;;;;;2280306;60;1914;-87
2023/11/22 08:20:13;93409.00;0.31;162.19;0.00;0.00;0.62;;;;;5.10;1.00;;;;;;2280215;60;1098;-84
2023/11/22 08:22:40;63073.00;0.21;109.79;0.00;0.00;0.62;;;;;5.30;1.00;;;;;;2280272;60;1132;-87
2023/11/22 08:25:08;1742058.00;5.81;3107.44;158830.00;0.53;275.02;;;;;5.60;1.00;;;;;;2280121;60;1390;-86
2023/11/22 08:27:36;1295991.00;4.32;2264.77;43558.00;0.15;76.04;;;;;5.60;1.00;;;;;;2280042;60;1243;-86
2023/11/22 08:30:04;1084111.00;3.61;1882.03;94070.00;0.31;163.33;;;;;6.00;1.00;;;;;;2280216;60;900;-85
2023/11/22 08:32:31;501271.00;1.67;864.01;101668.00;0.34;176.45;;;;;5.50;1.00;;;;;;2280107;60;2399;-87
2023/11/22 08:34:58;393080.00;1.31;677.91;101006.00;0.34;175.31;;;;;5.90;1.00;;;;;;2280117;60;1622;-87
2023/11/22 08:37:25;372949.00;1.24;643.31;98868.00;0.33;171.62;;;;;6.00;1.00;;;;;;2280839;55;3746;-87
2023/11/22 08:39:53;328058.00;1.09;566.15;122482.00;0.41;212.36;;;;;6.20;1.00;;;;;;2280186;61;1058;-86
2023/11/22 08:42:20;222022.00;0.74;383.82;94846.00;0.32;164.67;;;;;6.00;1.00;;;;;;2280207;61;1063;-86
2023/11/22 08:44:51;91299.00;0.30;158.55;0.00;0.00;0.62;;;;;5.90;1.00;;;;;;2280199;60;1290;-85
2023/11/22 08:47:18;42575.00;0.14;74.34;0.00;0.00;0.62;;;;;5.90;1.00;;;;;;2280190;60;1117;-85
2023/11/22 08:49:45;161942.00;0.54;280.39;36741.00;0.12;64.25;;;;;5.70;1.00;;;;;;2280265;60;973;-86
2023/11/22 08:52:12;25429.00;0.08;44.67;0.00;0.00;0.62;;;;;5.40;1.00;;;;;;2280228;60;995;-88
2023/11/22 08:54:39;109971.00;0.37;190.78;0.00;0.00;0.62;;;;;5.30;1.00;;;;;;2280214;60;1386;-90
2023/11/22 08:57:06;84707.00;0.28;147.17;0.00;0.00;0.62;;;;;5.30;1.00;;;;;;2280078;60;905;-86
2023/11/22 08:59:37;232045.00;0.77;401.07;0.00;0.00;0.62;;;;;5.30;1.00;;;;;;2280145;60;2002;-88
2023/11/22 09:02:07;16199.00;0.05;28.69;0.00;0.00;0.62;;;;;5.70;1.00;;;;;;2280212;60;1138;-85
2023/11/22 09:04:35;69816.00;0.23;121.44;0.00;0.00;0.62;;;;;5.60;1.00;;;;;;2280050;60;1382;-86
2023/11/22 09:07:02;40175.00;0.13;70.19;0.00;0.00;0.62;;;;;5.90;1.00;;;;;;2280121;60;1056;-86
2023/11/22 09:09:31;108186.00;0.36;187.70;29336.00;0.10;51.43;;;;;6.00;1.00;;;;;;2280138;60;1682;-86
2023/11/22 09:11:58;80267.00;0.27;139.50;0.00;0.00;0.62;;;;;5.70;1.00;;;;;;2280183;60;989;-85
2023/11/22 09:14:26;69566.00;0.23;121.01;0.00;0.00;0.62;;;;;6.00;1.00;;;;;;2280118;60;1369;-86
2023/11/22 09:16:54;123192.00;0.41;213.59;27450.00;0.09;48.17;;;;;6.00;1.00;;;;;;2280557;60;1128;-85
2023/11/22 09:19:23;86641.00;0.29;150.51;0.00;0.00;0.62;;;;;6.00;1.00;;;;;;2280746;60;2006;-86
2023/11/22 09:21:50;127482.00;0.42;220.99;0.00;0.00;0.62;;;;;6.00;1.00;;;;;;2280758;60;1075;-86
2023/11/22 09:24:16;208964.00;0.70;361.35;31948.00;0.11;55.95;;;;;5.80;1.00;;;;;;2280820;60;1284;-86
2023/11/22 09:26:43;72636.00;0.24;126.32;0.00;0.00;0.62;;;;;5.60;1.00;;;;;;2280758;60;1095;-86
2023/11/22 09:29:13;146289.00;0.49;253.41;0.00;0.00;0.62;;;;;5.60;1.00;;;;;;2280777;60;1075;-86
2023/11/22 09:31:41;22665.00;0.08;39.88;0.00;0.00;0.62;;;;;5.60;1.00;;;;;;2280629;60;1105;-86
2023/11/22 09:34:08;49332.00;0.16;86.03;0.00;0.00;0.62;;;;;5.60;1.00;;;;;;2280792;60;1282;-85
2023/11/22 09:36:37;277977.00;0.93;480.06;24680.00;0.08;43.37;;;;;6.00;1.00;;;;;;2280701;60;1357;-86
2023/11/22 09:39:08;248416.00;0.83;429.23;0.00;0.00;0.62;;;;;5.80;1.00;;;;;;2280704;60;1923;-87
2023/11/22 09:41:35;134656.00;0.45;233.36;0.00;0.00;0.62;;;;;5.80;1.00;;;;;;2280636;60;1885;-86
2023/11/22 09:44:03;42889.00;0.14;74.89;0.00;0.00;0.62;;;;;6.20;1.00;;;;;;2280729;60;1394;-86
2023/11/22 09:46:33;242188.00;0.81;418.51;0.00;0.00;0.62;;;;;6.50;1.00;;;;;;2280710;60;1822;-86
2023/11/22 09:49:03;209579.00;0.70;362.41;0.00;0.00;0.62;;;;;6.70;1.00;;;;;;2280699;60;1061;-86
2023/11/22 09:51:37;45822.00;0.15;79.96;0.00;0.00;0.62;;;;;6.40;1.00;;;;;;2280722;60;1047;-86
2023/11/22 09:54:14;51576.00;0.17;89.91;0.00;0.00;0.62;;;;;6.20;1.00;;;;;;2280557;60;2375;-86
2023/11/22 09:56:50;108725.00;0.36;188.63;0.00;0.00;0.62;;;;;6.00;1.00;;;;;;2293007;39;3582;-85